Searsburg, Vermont
Current Conditions -  °F | °C
As of 4:54 PM on Monday 22 Dec 2014 (Local Time) from KDDH Reporting Station
Overcast Overcast  
Wind Chill: 30°   Ceiling: 4100
Heat Index: 38°   Visibility: 10mi
Dew Point: 30°   Wind: 13mph
Humidity: 73%   Direction: 140°SE
Pressure: 30.26"   Gusts: NA
Location:  42.883°N, 72.8981°W
Report Text: KDDH 222154Z AUTO 14011KT 10SM OVC041 03/M01 A3026 RMK AO2 SLP255 T00331011
Loading
Personal Weather Stations






























Interactive Weather Map New forecast layout! Learn more

10-Day Weather Forecast

Advertisements
Track Severe Weather on mobile